Time;durP1;ratioP1;P1;durP2;ratioP2;P2;SDS_P1;SDS_P2;PMS_P1;PMS_P2;Temp;Humidity;BMP_temperature;BMP_pressure;BME280_temperature;BME280_humidity;BME280_pressure;Samples;Min_cycle;Max_cycle;Signal;HPM_P1;HPM_P2
2021/12/17 00:00:50;;;;;;;18.85;14.48;;;4.40;99.90;;;;;;5033354;28;20029;-78
2021/12/17 00:03:34;;;;;;;18.45;13.05;;;4.50;99.90;;;;;;5032863;28;20013;-78
2021/12/17 00:08:36;;;;;;;16.73;13.90;;;4.50;99.90;;;;;;5035129;28;20681;-78
2021/12/17 00:11:03;;;;;;;17.35;13.98;;;4.60;99.90;;;;;;5032714;28;20402;-77
2021/12/17 00:13:28;;;;;;;20.92;12.55;;;4.90;99.90;;;;;;5033705;28;20584;-78
2021/12/17 00:15:54;;;;;;;17.73;12.32;;;4.90;99.90;;;;;;5033536;28;20044;-77
2021/12/17 00:18:30;;;;;;;16.83;11.98;;;4.70;99.90;;;;;;5034145;28;20096;-78
2021/12/17 00:48:36;;;;;;;18.88;12.05;;;4.60;99.90;;;;;;5054269;28;20020;-78
2021/12/17 00:53:57;;;;;;;19.42;14.10;;;4.70;99.90;;;;;;5032881;28;20544;-78
2021/12/17 00:56:23;;;;;;;18.58;13.50;;;4.60;99.90;;;;;;5032784;28;20025;-78
2021/12/17 00:58:48;;;;;;;18.83;13.43;;;4.70;99.90;;;;;;5032588;28;20028;-78
2021/12/17 01:01:15;;;;;;;16.92;12.48;;;4.80;99.90;;;;;;5030873;28;20400;-79
2021/12/17 01:03:40;;;;;;;15.30;12.40;;;4.80;99.90;;;;;;5031455;28;20026;-78
2021/12/17 01:06:06;;;;;;;16.95;12.82;;;4.70;99.90;;;;;;5032286;28;20033;-78
2021/12/17 01:08:32;;;;;;;15.25;13.38;;;4.70;99.90;;;;;;5032158;28;20076;-77
2021/12/17 01:10:58;;;;;;;18.25;13.68;;;4.60;99.90;;;;;;5032961;28;20029;-78
2021/12/17 01:13:25;;;;;;;15.52;12.38;;;4.60;99.90;;;;;;5027573;28;20017;-78
2021/12/17 01:15:51;;;;;;;17.70;13.20;;;4.70;99.90;;;;;;5030430;28;20021;-78
2021/12/17 01:18:20;;;;;;;16.55;13.70;;;4.70;99.90;;;;;;5031035;28;20548;-78
2021/12/17 01:38:01;;;;;;;14.60;11.85;;;5.30;99.90;;;;;;5023192;28;20029;-77
2021/12/17 01:42:48;;;;;;;15.90;12.80;;;5.20;99.90;;;;;;5068435;28;20048;-78
2021/12/17 01:45:14;;;;;;;15.70;12.77;;;5.20;99.90;;;;;;5057369;28;20010;-79
2021/12/17 01:47:41;;;;;;;16.70;13.65;;;5.20;99.90;;;;;;5055884;28;20049;-78
2021/12/17 02:01:01;;;;;;;21.23;13.07;;;5.00;99.90;;;;;;5029132;28;20076;-78
2021/12/17 02:03:27;;;;;;;18.52;14.10;;;4.90;99.90;;;;;;5031557;28;20020;-77
2021/12/17 02:05:52;;;;;;;15.77;12.98;;;4.80;99.90;;;;;;5050875;28;20025;-78
2021/12/17 02:08:18;;;;;;;15.88;12.48;;;4.80;99.90;;;;;;5038029;28;20033;-79
2021/12/17 02:32:26;;;;;;;15.95;12.90;;;5.30;99.90;;;;;;5032996;28;20563;-77
2021/12/17 02:37:31;;;;;;;15.32;13.23;;;5.00;99.90;;;;;;5034851;28;20079;-78
2021/12/17 02:42:24;;;;;;;18.58;13.70;;;5.00;99.90;;;;;;5034385;28;20040;-77
2021/12/17 02:45:36;;;;;;;19.85;15.25;;;4.90;99.90;;;;;;5043224;28;20025;-77
2021/12/17 02:48:10;;;;;;;17.75;13.20;;;4.90;99.90;;;;;;5035256;28;20036;-76
2021/12/17 02:50:44;;;;;;;16.67;12.85;;;4.90;99.90;;;;;;5030005;28;20022;-77
2021/12/17 02:53:11;;;;;;;14.57;11.95;;;5.00;99.90;;;;;;5033798;28;20025;-78
2021/12/17 02:55:40;;;;;;;15.95;12.15;;;5.30;99.90;;;;;;5034684;28;20017;-77
2021/12/17 02:58:06;;;;;;;18.55;12.38;;;5.30;99.90;;;;;;5032617;28;20025;-77
2021/12/17 03:00:34;;;;;;;23.23;13.75;;;5.40;99.90;;;;;;5034711;28;20025;-78
2021/12/17 03:03:03;;;;;;;14.35;12.73;;;5.50;99.90;;;;;;5032725;28;20045;-78
2021/12/17 03:05:29;;;;;;;16.95;12.68;;;5.40;99.90;;;;;;5034254;28;20025;-78
2021/12/17 03:07:56;;;;;;;14.57;12.82;;;5.40;99.90;;;;;;5033183;28;20037;-78
2021/12/17 03:10:22;;;;;;;16.80;13.20;;;5.40;99.90;;;;;;5033870;28;20022;-79
2021/12/17 03:26:02;;;;;;;18.13;13.98;;;5.30;99.90;;;;;;5029903;28;20037;-79
2021/12/17 03:28:27;;;;;;;17.27;13.05;;;5.20;99.90;;;;;;5031039;28;20493;-78
2021/12/17 03:30:54;;;;;;;21.00;13.40;;;5.10;99.90;;;;;;5033631;28;20033;-79
2021/12/17 03:33:20;;;;;;;17.75;13.43;;;5.10;99.90;;;;;;5034261;28;20017;-77
2021/12/17 03:35:46;;;;;;;18.60;13.25;;;5.00;99.90;;;;;;5034070;28;20024;-77
2021/12/17 03:38:12;;;;;;;20.55;15.18;;;5.20;99.90;;;;;;5033136;28;20025;-79
2021/12/17 03:40:40;;;;;;;15.32;13.32;;;5.20;99.90;;;;;;5030575;28;20018;-78
2021/12/17 03:43:11;;;;;;;19.58;14.18;;;5.30;99.90;;;;;;5031829;28;20505;-77
2021/12/17 03:45:38;;;;;;;17.77;13.70;;;5.30;99.90;;;;;;5033929;28;20500;-78
2021/12/17 03:48:04;;;;;;;20.65;15.93;;;5.10;99.90;;;;;;5033514;28;20112;-77
2021/12/17 03:50:34;;;;;;;23.40;16.60;;;5.10;99.90;;;;;;5033376;28;20142;-78
2021/12/17 03:52:59;;;;;;;21.05;16.25;;;5.30;99.90;;;;;;5034129;28;20033;-78
2021/12/17 03:55:25;;;;;;;17.70;13.50;;;5.40;99.90;;;;;;5031951;28;20022;-77
2021/12/17 03:57:51;;;;;;;21.17;14.00;;;5.50;99.90;;;;;;5026474;28;20367;-80
2021/12/17 04:00:16;;;;;;;18.70;13.80;;;5.50;99.90;;;;;;5032035;28;20063;-77
2021/12/17 04:02:42;;;;;;;18.73;14.65;;;5.40;99.90;;;;;;5037052;28;20550;-78
2021/12/17 04:05:08;;;;;;;19.42;14.52;;;5.50;99.90;;;;;;5033828;28;20044;-78
2021/12/17 04:07:34;;;;;;;17.40;15.05;;;5.40;99.90;;;;;;5033869;28;20092;-79
2021/12/17 04:09:59;;;;;;;20.33;15.57;;;5.30;99.90;;;;;;5030761;28;20034;-79
2021/12/17 04:12:40;;;;;;;19.95;16.08;;;5.20;99.90;;;;;;5035419;28;20025;-77
2021/12/17 04:15:06;;;;;;;19.50;15.45;;;5.20;99.90;;;;;;5031063;28;20440;-78
2021/12/17 04:17:40;;;;;;;20.65;15.48;;;5.10;99.90;;;;;;5031474;28;20084;-77
2021/12/17 04:20:07;;;;;;;19.30;14.85;;;5.10;99.90;;;;;;5032629;28;20018;-77
2021/12/17 04:22:32;;;;;;;24.25;16.30;;;5.10;99.90;;;;;;5031645;28;20057;-77
2021/12/17 04:24:58;;;;;;;17.08;14.48;;;5.00;99.90;;;;;;5032017;28;20060;-77
2021/12/17 04:27:23;;;;;;;20.23;15.80;;;5.10;99.90;;;;;;5032489;28;20025;-77
2021/12/17 04:29:49;;;;;;;20.50;16.40;;;5.00;99.90;;;;;;5036729;28;20515;-77
2021/12/17 04:32:14;;;;;;;21.92;16.33;;;5.10;99.90;;;;;;5048848;28;20021;-78
2021/12/17 04:34:40;;;;;;;19.05;15.38;;;5.20;99.90;;;;;;5038460;28;20018;-77
2021/12/17 04:37:05;;;;;;;19.92;15.38;;;5.30;99.90;;;;;;5035625;28;20072;-77
2021/12/17 04:39:31;;;;;;;21.10;17.23;;;5.30;99.90;;;;;;5034178;28;20013;-78
2021/12/17 04:42:02;;;;;;;18.90;16.27;;;5.30;99.90;;;;;;5030607;28;20017;-78
2021/12/17 04:44:32;;;;;;;22.33;15.98;;;5.20;99.90;;;;;;5025297;28;20013;-79
2021/12/17 04:57:56;;;;;;;19.33;15.73;;;5.20;99.90;;;;;;5022937;28;20021;-78
2021/12/17 05:00:25;;;;;;;21.33;15.85;;;5.30;99.90;;;;;;5032008;28;20036;-78
2021/12/17 05:02:54;;;;;;;22.50;16.90;;;5.30;99.90;;;;;;5032612;28;20010;-77
2021/12/17 05:05:25;;;;;;;18.75;15.05;;;5.30;99.90;;;;;;5032914;28;20025;-77
2021/12/17 05:07:56;;;;;;;22.40;15.43;;;5.30;99.90;;;;;;5029889;28;20013;-79
2021/12/17 05:18:35;;;;;;;20.98;15.50;;;5.30;99.90;;;;;;5031771;28;20025;-79
2021/12/17 05:21:07;;;;;;;20.73;17.25;;;5.30;99.90;;;;;;5032231;28;20437;-77
2021/12/17 05:23:37;;;;;;;18.60;16.45;;;5.30;99.90;;;;;;5030337;28;20432;-77
2021/12/17 05:26:06;;;;;;;21.58;16.83;;;5.30;99.90;;;;;;5027614;28;20025;-79
2021/12/17 05:28:32;;;;;;;25.42;17.05;;;5.30;99.90;;;;;;5031460;28;20040;-78
2021/12/17 05:30:57;;;;;;;21.98;16.58;;;5.30;99.90;;;;;;5031352;28;20396;-78
2021/12/17 05:33:25;;;;;;;20.35;17.15;;;5.40;99.90;;;;;;5031089;28;20500;-78
2021/12/17 05:35:51;;;;;;;26.63;17.42;;;5.40;99.90;;;;;;5030650;28;20026;-78
2021/12/17 05:38:19;;;;;;;25.52;16.92;;;5.40;99.90;;;;;;5030767;28;20021;-79
2021/12/17 05:40:45;;;;;;;21.58;16.33;;;5.40;99.90;;;;;;5028042;28;20517;-78
2021/12/17 05:43:12;;;;;;;22.10;17.50;;;5.40;99.90;;;;;;5031187;28;20025;-79
2021/12/17 05:48:24;;;;;;;22.05;15.60;;;5.40;99.90;;;;;;5031726;28;20139;-78
2021/12/17 05:50:52;;;;;;;20.02;15.43;;;5.50;99.90;;;;;;5032304;28;20067;-78
2021/12/17 05:53:18;;;;;;;23.33;16.25;;;5.50;99.90;;;;;;5030228;28;20021;-78
2021/12/17 05:55:44;;;;;;;19.52;15.38;;;5.50;99.90;;;;;;5031150;28;20474;-78
2021/12/17 05:58:10;;;;;;;18.63;15.23;;;5.50;99.90;;;;;;5030924;28;20025;-77
2021/12/17 06:00:39;;;;;;;19.80;15.73;;;5.50;99.90;;;;;;5031332;28;20053;-77
2021/12/17 06:03:05;;;;;;;20.33;15.30;;;5.50;99.90;;;;;;5032713;28;20075;-77
2021/12/17 06:05:30;;;;;;;22.50;17.02;;;5.50;99.90;;;;;;5031829;28;20030;-77
2021/12/17 06:07:56;;;;;;;20.75;17.33;;;5.50;99.90;;;;;;5031635;28;20033;-77
2021/12/17 06:10:22;;;;;;;18.92;15.95;;;5.50;99.90;;;;;;5026607;28;20021;-79
2021/12/17 06:12:48;;;;;;;19.88;15.75;;;5.50;99.90;;;;;;5031976;28;20034;-78
2021/12/17 06:15:17;;;;;;;19.30;15.52;;;5.60;99.90;;;;;;5030881;28;20026;-78
2021/12/17 06:17:43;;;;;;;17.27;14.65;;;5.70;99.90;;;;;;5031183;28;20017;-77
2021/12/17 06:20:12;;;;;;;17.13;14.68;;;5.70;99.90;;;;;;5032678;28;20033;-78
2021/12/17 06:22:37;;;;;;;20.67;15.15;;;5.70;99.90;;;;;;5031537;28;20548;-78
2021/12/17 06:25:05;;;;;;;18.40;14.55;;;5.70;99.90;;;;;;5024546;28;20029;-78
2021/12/17 06:27:31;;;;;;;22.13;14.52;;;5.90;99.90;;;;;;5030446;28;20025;-78
2021/12/17 06:29:57;;;;;;;17.45;14.25;;;6.00;99.90;;;;;;5031340;28;20486;-78
2021/12/17 06:32:24;;;;;;;18.98;15.38;;;6.10;99.90;;;;;;5037996;28;20017;-77
2021/12/17 06:34:50;;;;;;;22.58;15.38;;;6.20;99.90;;;;;;5030953;28;20514;-78
2021/12/17 06:37:17;;;;;;;18.13;13.30;;;6.30;99.90;;;;;;5031386;28;20029;-78
2021/12/17 06:39:43;;;;;;;17.33;13.70;;;6.30;99.90;;;;;;5029843;28;20076;-78
2021/12/17 06:42:10;;;;;;;21.88;14.48;;;6.20;99.90;;;;;;5025478;28;20049;-78
2021/12/17 06:44:37;;;;;;;16.23;12.25;;;6.10;99.90;;;;;;5029429;28;20022;-78
2021/12/17 06:47:09;;;;;;;16.88;13.85;;;6.00;99.90;;;;;;5030869;28;20039;-77
2021/12/17 06:55:13;;;;;;;17.60;13.00;;;6.10;99.90;;;;;;5034493;28;20124;-80
2021/12/17 07:10:45;;;;;;;20.48;13.27;;;6.20;99.90;;;;;;5059557;28;20017;-79
2021/12/17 07:34:46;;;;;;;13.18;11.27;;;6.20;99.90;;;;;;5030202;28;20032;-79
2021/12/17 07:39:38;;;;;;;13.70;9.02;;;6.20;99.90;;;;;;5051602;28;20032;-78
2021/12/17 07:42:04;;;;;;;16.27;11.45;;;6.20;99.90;;;;;;5051051;28;20018;-80
2021/12/17 07:44:29;;;;;;;10.35;9.25;;;6.20;99.90;;;;;;5067699;28;20021;-79
2021/12/17 07:46:55;;;;;;;10.57;9.32;;;6.10;99.90;;;;;;5070008;28;20025;-79
2021/12/17 07:49:21;;;;;;;14.80;10.25;;;6.00;99.90;;;;;;5069352;28;20029;-79
2021/12/17 07:51:46;;;;;;;12.68;10.68;;;6.00;99.90;;;;;;5056903;28;20021;-79
2021/12/17 07:54:12;;;;;;;13.60;11.65;;;6.00;99.90;;;;;;5055203;28;20029;-79
2021/12/17 07:56:37;;;;;;;12.63;9.27;;;6.00;99.90;;;;;;5049182;28;20064;-77
2021/12/17 07:59:05;;;;;;;14.18;10.88;;;6.00;99.90;;;;;;5035048;28;20479;-79
2021/12/17 08:01:30;;;;;;;12.93;10.55;;;5.90;99.90;;;;;;5039136;28;20052;-78
2021/12/17 08:03:56;;;;;;;14.43;12.02;;;5.90;99.90;;;;;;5048974;28;20053;-78
2021/12/17 08:06:22;;;;;;;14.77;11.20;;;5.80;99.90;;;;;;5035012;28;20039;-78
2021/12/17 08:08:47;;;;;;;9.65;8.70;;;5.90;99.90;;;;;;5034657;28;20032;-78
2021/12/17 08:11:13;;;;;;;13.00;10.55;;;5.80;99.90;;;;;;5038476;28;20057;-77
2021/12/17 08:13:41;;;;;;;14.82;11.00;;;5.80;99.90;;;;;;5044924;28;20021;-76
2021/12/17 08:32:00;;;;;;;;;;;6.00;99.90;;;;;;5044829;28;20056;-78
2021/12/17 08:34:26;;;;;;;10.73;7.40;;;6.00;99.90;;;;;;5034100;28;19962;-79
2021/12/17 08:36:52;;;;;;;8.43;7.38;;;6.10;99.90;;;;;;5035666;28;20038;-78
2021/12/17 08:39:18;;;;;;;7.63;6.82;;;6.10;99.90;;;;;;5034353;28;20067;-80
2021/12/17 08:41:44;;;;;;;7.43;6.68;;;6.20;99.90;;;;;;5034322;28;20014;-81
2021/12/17 08:44:10;;;;;;;8.20;7.35;;;6.30;99.90;;;;;;5034974;28;20075;-76
2021/12/17 08:46:36;;;;;;;6.32;5.45;;;6.40;99.90;;;;;;5032889;28;20116;-77
2021/12/17 08:49:02;;;;;;;12.25;6.82;;;6.50;99.90;;;;;;5026768;28;20022;-77
2021/12/17 08:51:29;;;;;;;7.97;6.45;;;6.60;99.90;;;;;;5034880;28;20021;-77
2021/12/17 08:53:54;;;;;;;6.57;5.88;;;6.60;99.90;;;;;;5032468;28;20084;-77
2021/12/17 08:56:22;;;;;;;5.63;5.00;;;6.70;99.90;;;;;;5029427;28;20668;-76
2021/12/17 08:58:51;;;;;;;6.60;5.43;;;6.70;99.90;;;;;;5031375;28;20081;-78
2021/12/17 09:01:17;;;;;;;6.65;5.53;;;6.60;99.90;;;;;;5031754;28;20075;-77
2021/12/17 09:03:43;;;;;;;6.40;5.47;;;6.60;99.90;;;;;;5031634;28;20018;-77
2021/12/17 09:06:08;;;;;;;6.55;5.85;;;6.60;99.90;;;;;;5031607;28;20033;-77
2021/12/17 09:08:34;;;;;;;6.28;5.68;;;6.60;99.90;;;;;;5031086;28;20433;-76
2021/12/17 09:10:59;;;;;;;8.38;6.18;;;6.60;99.90;;;;;;5025605;28;20482;-77
2021/12/17 09:13:26;;;;;;;6.38;5.75;;;6.60;99.90;;;;;;5031032;28;20025;-77
2021/12/17 09:15:58;;;;;;;7.50;6.22;;;6.60;99.90;;;;;;5036187;28;20486;-79
2021/12/17 09:18:25;;;;;;;6.40;5.70;;;6.60;99.90;;;;;;5032470;28;20025;-81
2021/12/17 09:20:51;;;;;;;8.05;6.07;;;6.60;99.90;;;;;;5034255;28;20401;-79
2021/12/17 09:23:16;;;;;;;8.40;6.07;;;6.50;99.90;;;;;;5033633;28;20033;-80
2021/12/17 09:25:43;;;;;;;7.40;6.05;;;6.50;99.90;;;;;;5045472;28;20029;-80
2021/12/17 09:28:09;;;;;;;10.02;6.03;;;6.50;99.90;;;;;;5033123;28;20022;-81
2021/12/17 09:30:35;;;;;;;7.43;5.70;;;6.60;99.90;;;;;;5028877;28;20021;-80
2021/12/17 09:33:01;;;;;;;7.20;6.50;;;6.80;99.90;;;;;;5033504;28;20040;-80
2021/12/17 09:35:26;;;;;;;7.35;5.75;;;6.80;99.90;;;;;;5033806;28;20056;-81
2021/12/17 09:37:52;;;;;;;6.30;5.70;;;6.90;99.90;;;;;;5030624;28;20410;-81
2021/12/17 09:40:18;;;;;;;7.72;6.38;;;6.80;99.90;;;;;;5033898;28;20029;-80
2021/12/17 09:42:45;;;;;;;6.60;5.90;;;6.80;99.90;;;;;;5035033;28;20018;-81
2021/12/17 09:45:13;;;;;;;8.07;6.00;;;6.80;99.90;;;;;;5033036;28;20063;-81
2021/12/17 09:47:40;;;;;;;7.05;6.35;;;6.90;99.90;;;;;;5035215;28;20021;-80
2021/12/17 09:50:08;;;;;;;6.88;6.13;;;6.90;99.90;;;;;;5033929;28;20029;-80
2021/12/17 09:52:34;;;;;;;6.60;6.00;;;6.90;99.90;;;;;;5035551;28;20075;-80
2021/12/17 09:55:02;;;;;;;9.07;6.50;;;7.00;99.90;;;;;;5035527;28;20034;-81
2021/12/17 09:57:31;;;;;;;7.47;6.60;;;7.00;99.90;;;;;;5049142;28;20524;-81
2021/12/17 09:59:56;;;;;;;6.43;5.82;;;7.10;99.90;;;;;;5035263;28;20089;-80
2021/12/17 10:02:22;;;;;;;7.07;5.72;;;7.10;99.90;;;;;;5033821;28;20064;-82
2021/12/17 10:04:48;;;;;;;6.90;6.20;;;7.10;99.90;;;;;;5036269;28;20096;-82
2021/12/17 10:07:20;;;;;;;10.00;6.97;;;7.20;99.90;;;;;;5037941;28;20036;-83
2021/12/17 10:10:06;;;;;;;8.30;6.88;;;7.50;99.90;;;;;;5036653;28;20104;-81
2021/12/17 10:12:35;;;;;;;7.50;6.78;;;7.50;99.90;;;;;;5045711;28;20030;-80
2021/12/17 10:15:07;;;;;;;9.48;5.88;;;7.30;99.90;;;;;;5034888;28;20029;-81
2021/12/17 10:17:50;;;;;;;9.30;6.60;;;7.30;99.90;;;;;;5036447;28;20025;-81
2021/12/17 10:20:16;;;;;;;7.88;5.60;;;7.60;99.90;;;;;;5035696;28;20044;-81
2021/12/17 10:22:44;;;;;;;7.53;6.57;;;7.60;99.90;;;;;;5035608;28;20430;-81
2021/12/17 10:25:11;;;;;;;8.50;6.95;;;7.50;99.90;;;;;;5035721;28;20030;-81
2021/12/17 10:27:40;;;;;;;8.15;7.35;;;7.50;99.90;;;;;;5040073;28;20021;-80
2021/12/17 10:30:21;;;;;;;7.97;6.78;;;7.60;99.90;;;;;;5038427;28;20064;-81
2021/12/17 10:32:50;;;;;;;7.72;6.93;;;7.70;99.90;;;;;;5042386;28;20021;-81
2021/12/17 10:35:18;;;;;;;9.32;6.38;;;7.90;99.90;;;;;;5046194;28;20059;-81
2021/12/17 10:37:56;;;;;;;9.13;7.18;;;8.00;99.90;;;;;;5048119;28;20037;-80
2021/12/17 10:40:26;;;;;;;8.23;7.38;;;7.80;99.90;;;;;;5040828;28;20025;-82
2021/12/17 10:45:28;;;;;;;8.75;7.63;;;8.00;99.90;;;;;;5039650;28;20033;-81
2021/12/17 10:50:54;;;;;;;8.55;7.75;;;7.80;99.90;;;;;;5035476;28;19912;-82
2021/12/17 10:53:24;;;;;;;9.00;8.10;;;7.80;99.90;;;;;;5038404;28;20032;-83
2021/12/17 10:55:51;;;;;;;12.75;8.15;;;7.80;99.90;;;;;;5041910;28;20017;-80
2021/12/17 10:58:17;;;;;;;8.55;7.75;;;7.90;99.90;;;;;;5043433;28;20013;-81
2021/12/17 11:00:55;;;;;;;8.15;7.22;;;7.90;99.90;;;;;;5036449;28;20022;-81
2021/12/17 11:03:20;;;;;;;7.95;7.18;;;7.90;99.90;;;;;;5035678;28;20024;-77
2021/12/17 11:05:46;;;;;;;8.32;7.35;;;7.90;99.90;;;;;;5032582;28;20021;-78
2021/12/17 11:08:30;;;;;;;8.18;6.95;;;7.90;99.90;;;;;;5032225;28;20030;-76
2021/12/17 11:11:05;;;;;;;9.00;8.20;;;7.90;99.90;;;;;;5031846;28;20071;-78
2021/12/17 11:13:31;;;;;;;7.85;7.03;;;7.90;99.90;;;;;;5034218;28;20014;-77
2021/12/17 11:15:56;;;;;;;9.32;8.40;;;7.80;99.90;;;;;;5034772;28;20036;-77
2021/12/17 11:18:25;;;;;;;8.30;7.50;;;7.90;99.90;;;;;;5034906;28;20119;-81
2021/12/17 11:20:53;;;;;;;9.23;7.82;;;8.00;99.90;;;;;;5034263;28;20024;-80
2021/12/17 11:23:18;;;;;;;9.02;8.07;;;7.70;99.90;;;;;;5047974;28;20053;-81
2021/12/17 11:25:50;;;;;;;9.68;8.43;;;7.60;99.90;;;;;;5031316;28;20083;-79
2021/12/17 11:28:16;;;;;;;9.45;7.47;;;7.70;99.90;;;;;;5034263;28;20029;-78
2021/12/17 11:30:44;;;;;;;8.00;7.13;;;7.60;99.90;;;;;;5033851;28;20104;-78
2021/12/17 11:33:11;;;;;;;8.60;7.50;;;7.50;99.90;;;;;;5033054;28;20433;-79
2021/12/17 11:35:39;;;;;;;9.20;7.22;;;7.50;99.90;;;;;;5033247;28;20393;-80
2021/12/17 11:38:11;;;;;;;8.57;7.40;;;7.60;99.90;;;;;;5041413;28;20401;-81
2021/12/17 11:41:09;;;;;;;8.70;7.80;;;7.70;99.90;;;;;;5029699;28;20496;-81
2021/12/17 11:43:51;;;;;;;10.15;7.22;;;7.70;99.90;;;;;;5025507;28;20037;-79
2021/12/17 11:46:27;;;;;;;8.82;7.65;;;7.90;99.90;;;;;;5033583;28;20025;-81
2021/12/17 11:48:56;;;;;;;8.27;7.43;;;7.80;99.90;;;;;;5037006;28;20017;-79
2021/12/17 11:51:31;;;;;;;7.97;7.15;;;7.90;99.90;;;;;;5032575;28;20026;-79
2021/12/17 11:54:15;;;;;;;9.45;7.00;;;8.00;99.90;;;;;;5034080;28;20021;-80
2021/12/17 11:56:47;;;;;;;10.80;8.05;;;8.00;99.90;;;;;;5034894;28;20582;-81
2021/12/17 11:59:25;;;;;;;8.05;7.25;;;7.80;99.90;;;;;;5033266;28;20034;-79
2021/12/17 12:02:03;;;;;;;7.82;7.00;;;7.90;99.90;;;;;;5033327;28;20156;-81
2021/12/17 12:04:32;;;;;;;7.60;6.65;;;8.00;99.90;;;;;;5036732;28;20370;-80
2021/12/17 12:07:29;;;;;;;7.88;7.15;;;8.10;99.90;;;;;;5035329;28;20030;-80
2021/12/17 12:10:11;;;;;;;8.68;7.10;;;8.10;99.90;;;;;;5030868;28;20100;-82
2021/12/17 12:12:57;;;;;;;9.63;6.82;;;8.10;99.90;;;;;;5035252;28;20017;-80
2021/12/17 12:15:23;;;;;;;12.70;7.32;;;8.00;99.90;;;;;;5038124;28;20090;-81
2021/12/17 12:17:58;;;;;;;7.82;7.07;;;8.20;99.90;;;;;;5043835;28;20097;-81
2021/12/17 12:20:47;;;;;;;7.93;6.93;;;8.20;99.90;;;;;;5033119;28;20021;-81
2021/12/17 12:23:31;;;;;;;7.13;6.43;;;8.30;99.90;;;;;;5033618;28;20026;-80
2021/12/17 12:26:08;;;;;;;7.28;6.57;;;8.40;99.90;;;;;;5036088;28;20508;-82
2021/12/17 12:28:46;;;;;;;6.43;5.82;;;8.30;99.90;;;;;;5028002;28;20497;-83
2021/12/17 12:31:18;;;;;;;6.53;5.93;;;8.40;99.90;;;;;;5036693;28;20026;-81
2021/12/17 12:34:06;;;;;;;7.93;5.80;;;8.50;99.90;;;;;;5036053;28;20041;-81
2021/12/17 12:36:53;;;;;;;7.38;5.97;;;8.50;99.90;;;;;;5047544;28;20029;-82
2021/12/17 12:39:44;;;;;;;8.25;7.40;;;8.60;99.90;;;;;;5034767;28;20378;-79
2021/12/17 12:42:17;;;;;;;5.80;5.30;;;8.60;99.90;;;;;;5033009;28;20068;-81
2021/12/17 12:44:42;;;;;;;6.65;5.63;;;8.60;99.90;;;;;;5035682;28;20017;-79
2021/12/17 12:47:15;;;;;;;6.85;5.90;;;8.70;99.90;;;;;;5036390;28;20057;-82
2021/12/17 12:49:51;;;;;;;6.43;5.80;;;8.70;99.90;;;;;;5036303;28;20021;-80
2021/12/17 12:52:32;;;;;;;8.13;6.05;;;8.70;99.90;;;;;;5038039;28;20025;-80
2021/12/17 12:55:28;;;;;;;16.35;6.28;;;8.60;99.90;;;;;;5039930;28;20163;-79
2021/12/17 12:58:03;;;;;;;9.68;6.72;;;8.40;99.90;;;;;;5032336;28;20052;-81
2021/12/17 13:00:36;;;;;;;6.57;5.90;;;8.40;99.90;;;;;;5037357;28;20017;-80
2021/12/17 13:03:08;;;;;;;8.70;6.55;;;8.50;99.90;;;;;;5028882;28;20489;-80
2021/12/17 13:05:34;;;;;;;10.48;6.53;;;8.60;99.90;;;;;;5034872;28;20478;-79
2021/12/17 13:08:03;;;;;;;8.25;7.32;;;8.50;99.90;;;;;;5034534;28;20474;-80
2021/12/17 13:10:38;;;;;;;8.98;7.22;;;8.30;99.90;;;;;;5035968;28;20529;-80
2021/12/17 13:21:42;;;;;;;8.15;7.30;;;8.50;99.90;;;;;;5032146;28;20032;-80
2021/12/17 13:24:19;;;;;;;10.35;8.35;;;8.50;99.90;;;;;;5034502;28;20446;-80
2021/12/17 13:26:57;;;;;;;9.35;6.95;;;8.40;99.90;;;;;;5033531;28;20055;-80
2021/12/17 13:29:35;;;;;;;8.27;7.45;;;8.40;99.90;;;;;;5035185;28;20022;-82
2021/12/17 13:32:12;;;;;;;7.80;6.63;;;8.50;99.90;;;;;;5039103;28;20025;-80
2021/12/17 13:34:38;;;;;;;8.00;6.90;;;8.30;99.90;;;;;;5033329;28;20033;-79
2021/12/17 13:37:19;;;;;;;7.97;7.18;;;8.20;99.90;;;;;;5030930;28;20028;-79
2021/12/17 13:39:47;;;;;;;8.27;7.38;;;8.10;99.90;;;;;;5027959;28;20543;-80
2021/12/17 13:42:19;;;;;;;8.10;7.30;;;8.10;99.90;;;;;;5029534;28;20458;-78
2021/12/17 13:44:46;;;;;;;7.90;7.07;;;8.30;99.90;;;;;;5032335;28;20032;-79
2021/12/17 13:47:18;;;;;;;6.53;5.93;;;8.30;99.90;;;;;;5033710;28;20021;-80
2021/12/17 13:49:49;;;;;;;7.80;7.03;;;8.50;99.90;;;;;;5033230;28;20044;-78
2021/12/17 13:52:16;;;;;;;7.30;6.57;;;8.30;99.90;;;;;;5034694;28;20018;-79
2021/12/17 13:54:45;;;;;;;12.98;7.72;;;8.20;99.90;;;;;;5032641;28;20037;-80
2021/12/17 13:57:14;;;;;;;7.85;7.03;;;8.10;99.90;;;;;;5033316;28;20029;-80
2021/12/17 13:59:42;;;;;;;7.45;6.68;;;8.10;99.90;;;;;;5032221;28;20017;-79
2021/12/17 14:02:17;;;;;;;7.88;7.15;;;8.10;99.90;;;;;;5036622;28;20378;-81
2021/12/17 14:04:58;;;;;;;10.45;6.75;;;8.30;99.90;;;;;;5033946;28;20053;-80
2021/12/17 14:07:28;;;;;;;9.40;6.85;;;8.50;99.90;;;;;;5041021;28;20034;-80
2021/12/17 14:10:14;;;;;;;8.13;6.97;;;8.70;99.90;;;;;;5046248;28;20146;-79
2021/12/17 14:12:41;;;;;;;7.90;7.10;;;8.70;99.90;;;;;;5031920;28;20029;-79
2021/12/17 14:15:21;;;;;;;7.80;6.82;;;8.50;99.90;;;;;;5042736;28;20033;-81
2021/12/17 14:17:52;;;;;;;7.32;6.63;;;8.40;99.90;;;;;;5034356;28;20022;-80
2021/12/17 14:20:21;;;;;;;9.60;6.50;;;8.50;99.90;;;;;;5032841;28;20025;-79
2021/12/17 14:22:55;;;;;;;8.75;7.38;;;8.50;99.90;;;;;;5032940;28;20492;-77
2021/12/17 14:25:33;;;;;;;8.15;7.22;;;8.30;99.90;;;;;;5032316;28;20093;-79
2021/12/17 14:28:21;;;;;;;9.63;7.70;;;8.40;99.90;;;;;;5032781;28;20025;-80
2021/12/17 14:31:15;;;;;;;9.88;7.82;;;8.50;99.90;;;;;;5029687;28;20481;-80
2021/12/17 14:33:46;;;;;;;9.55;8.15;;;8.40;99.90;;;;;;5030430;28;20100;-79
2021/12/17 14:36:17;;;;;;;10.00;8.88;;;8.40;99.90;;;;;;5029713;28;20022;-79
2021/12/17 14:38:51;;;;;;;10.00;8.75;;;8.40;99.90;;;;;;5028083;28;20063;-76
2021/12/17 14:41:27;;;;;;;10.02;9.00;;;8.30;99.90;;;;;;5030312;28;20026;-78
2021/12/17 14:44:06;;;;;;;10.18;9.18;;;8.20;99.90;;;;;;5029287;28;20018;-77
2021/12/17 14:47:00;;;;;;;10.68;9.48;;;8.00;99.90;;;;;;5035257;28;20016;-77
2021/12/17 15:02:56;;;;;;;11.18;9.05;;;8.00;99.90;;;;;;5031433;28;19916;-76
2021/12/17 15:05:27;;;;;;;12.52;10.70;;;7.90;99.90;;;;;;5032219;28;20108;-77
2021/12/17 15:07:58;;;;;;;;;;;7.90;99.90;;;;;;5035445;28;20059;-78
2021/12/17 15:10:24;;;;;;;10.63;9.40;;;7.80;99.90;;;;;;5059471;28;19913;-77
2021/12/17 15:12:55;;;;;;;10.77;9.63;;;7.70;99.90;;;;;;5055471;28;20035;-76
2021/12/17 15:15:23;;;;;;;10.95;9.85;;;7.80;99.90;;;;;;5073293;28;20037;-78
2021/12/17 15:17:53;;;;;;;10.52;9.52;;;7.70;99.90;;;;;;5064398;28;20091;-77
2021/12/17 15:20:21;;;;;;;12.80;10.65;;;7.60;99.90;;;;;;5067072;28;20025;-77
2021/12/17 15:22:48;;;;;;;11.50;10.30;;;7.60;99.90;;;;;;5058182;28;20056;-79
2021/12/17 15:25:15;;;;;;;10.77;9.77;;;7.60;99.90;;;;;;5036565;28;20091;-77
2021/12/17 15:27:42;;;;;;;11.05;9.82;;;7.50;99.90;;;;;;5032746;28;20057;-78
2021/12/17 15:30:18;;;;;;;11.32;10.20;;;7.50;99.90;;;;;;5034812;28;20052;-77
2021/12/17 15:32:44;;;;;;;11.15;10.07;;;7.40;99.90;;;;;;5034692;28;20409;-77
2021/12/17 15:35:16;;;;;;;10.88;9.77;;;7.40;99.90;;;;;;5034821;28;20096;-77
2021/12/17 15:37:41;;;;;;;12.10;10.82;;;7.40;99.90;;;;;;5026640;28;20021;-78
2021/12/17 15:40:09;;;;;;;11.05;9.98;;;7.50;99.90;;;;;;5029669;28;20492;-77
2021/12/17 15:42:34;;;;;;;9.85;8.93;;;7.40;99.90;;;;;;5032196;28;20393;-77
2021/12/17 15:45:00;;;;;;;11.70;10.18;;;7.40;99.90;;;;;;5033162;28;20032;-77
2021/12/17 15:47:25;;;;;;;10.98;9.88;;;7.40;99.90;;;;;;5033209;28;20025;-77
2021/12/17 15:49:51;;;;;;;10.45;9.45;;;7.30;99.90;;;;;;5033069;28;20148;-76
2021/12/17 15:52:17;;;;;;;11.40;10.30;;;7.30;99.90;;;;;;5033495;28;20018;-77
2021/12/17 15:54:43;;;;;;;10.77;9.68;;;7.20;99.90;;;;;;5032692;28;20095;-77
2021/12/17 15:57:10;;;;;;;11.15;9.00;;;7.20;99.90;;;;;;5032102;28;20025;-78
2021/12/17 15:59:35;;;;;;;10.63;9.30;;;7.20;99.90;;;;;;5032649;28;20026;-76
2021/12/17 16:02:03;;;;;;;10.52;9.50;;;7.20;99.90;;;;;;5026061;28;20040;-77
2021/12/17 16:04:37;;;;;;;11.23;10.13;;;7.20;99.90;;;;;;5034172;28;20473;-80
2021/12/17 16:07:03;;;;;;;11.55;9.98;;;7.20;99.90;;;;;;5032143;28;20509;-79
2021/12/17 16:23:04;;;;;;;10.23;9.15;;;7.00;99.90;;;;;;5030707;28;20554;-79
2021/12/17 16:25:30;;;;;;;11.15;10.05;;;7.00;99.90;;;;;;5034881;28;20076;-79
2021/12/17 16:27:55;;;;;;;11.02;9.88;;;7.00;99.90;;;;;;5033026;28;20025;-79
2021/12/17 16:30:23;;;;;;;11.45;10.35;;;7.00;99.90;;;;;;5032188;28;20021;-80
2021/12/17 16:32:49;;;;;;;12.25;11.05;;;7.00;99.90;;;;;;5031421;28;20489;-77
2021/12/17 16:35:15;;;;;;;10.65;9.05;;;7.10;99.90;;;;;;5033494;28;20022;-79
2021/12/17 16:37:40;;;;;;;10.75;9.65;;;7.10;99.90;;;;;;5032892;28;20030;-80
2021/12/17 16:40:07;;;;;;;11.60;10.50;;;6.90;99.90;;;;;;5034047;28;20119;-80
2021/12/17 16:42:33;;;;;;;11.88;10.68;;;7.00;99.90;;;;;;5033944;28;20386;-80
2021/12/17 16:47:25;;;;;;;11.75;10.55;;;7.10;99.90;;;;;;5040897;28;20037;-79